Terminal Aerodrome Forecast
Issued by NWS Twin Cities, MN

Home | Current Version | Previous Version | Graphics & Text | Print | Product List | Glossary On
Versions: 1 2 3 4 5 6 7 8 9 10 11 12 13 14 15 16 17 18 19 20
000
FTUS43 KMPX 242300
TAFSTC
TAF
KSTC 242329Z 2500/2524 16008KT P6SM BKN022
     FM250100 13007KT P6SM SCT035 BKN060 PROB30 2509/2512 4SM -TSRA
      BR OVC035CB
     FM251200 15007KT P6SM SCT020 BKN035
     FM252100 30006KT P6SM BKN040=

USA.gov is the U.S. government's official web portal to all federal, state and local government web resources and services.